Arcola, Texas
Current Conditions -  °F | °C
As of 9:35 PM on Sunday 23 Nov 2014 (Local Time) from KAXH Reporting Station
Clear Clear  
Wind Chill: 15°   Ceiling: Unl
Heat Index: 15°   Visibility: 10mi
Dew Point: 14°   Wind: 9mph
Humidity: 93%   Direction: 210°SSW
Pressure: 29.69"   Gusts: NA
Location:  29.4042°N, 95.4477°W
Report Text: KAXH 240335Z AUTO 21008KT 10SM CLR 15/14 A2969 RMK AO2 T01480136
Loading
Personal Weather Stations






























Interactive Weather Map New forecast layout! Learn more

10-Day Weather Forecast

Advertisements
Track Severe Weather on mobile